createdAt,value
2022-11-02T00:00:55.682Z,92.78
2022-11-02T00:03:24.056Z,92.20
2022-11-02T00:05:52.210Z,92.74
2022-11-02T00:08:21.805Z,92.99
2022-11-02T00:10:49.955Z,93.57
2022-11-02T00:13:21.223Z,93.58
2022-11-02T00:15:49.409Z,93.55
2022-11-02T00:18:17.718Z,92.15
2022-11-02T00:20:45.830Z,89.88
2022-11-02T00:23:14.347Z,89.39
2022-11-02T00:25:47.183Z,88.78
2022-11-02T00:28:15.835Z,88.29
2022-11-02T00:30:44.600Z,87.38
2022-11-02T00:33:13.045Z,86.03
2022-11-02T00:35:41.593Z,86.16
2022-11-02T00:38:09.962Z,84.67
2022-11-02T00:40:38.135Z,84.69
2022-11-02T00:43:08.391Z,84.83
2022-11-02T00:45:36.623Z,84.51
2022-11-02T00:48:05.615Z,84.63
2022-11-02T00:50:33.983Z,84.57
2022-11-02T00:53:02.492Z,84.54
2022-11-02T00:55:30.762Z,84.33
2022-11-02T00:58:04.364Z,84.45
2022-11-02T01:00:34.106Z,83.85
2022-11-02T01:03:02.495Z,83.48
2022-11-02T01:05:31.851Z,83.78
2022-11-02T01:08:00.001Z,83.84
2022-11-02T01:10:28.565Z,83.78
2022-11-02T01:12:56.763Z,83.76
2022-11-02T01:15:24.909Z,83.65
2022-11-02T01:17:54.374Z,83.93
2022-11-02T01:20:22.530Z,84.08
2022-11-02T01:22:50.641Z,84.65
2022-11-02T01:25:20.175Z,85.13
2022-11-02T01:27:48.413Z,85.56
2022-11-02T01:30:16.674Z,85.52
2022-11-02T01:32:45.307Z,85.35
2022-11-02T01:35:15.090Z,85.84
2022-11-02T01:37:43.333Z,85.85
2022-11-02T01:40:12.254Z,85.68
2022-11-02T01:42:40.489Z,85.44
2022-11-02T01:45:10.626Z,85.44
2022-11-02T01:47:40.165Z,85.11
2022-11-02T01:50:11.407Z,85.29
2022-11-02T01:52:41.509Z,85.48
2022-11-02T01:55:11.917Z,85.39
2022-11-02T01:57:41.712Z,85.57
2022-11-02T02:00:11.974Z,85.96
2022-11-02T02:02:47.079Z,86.06
2022-11-02T02:05:16.182Z,86.66
2022-11-02T02:07:46.441Z,87.38
2022-11-02T02:10:14.709Z,87.17
2022-11-02T02:12:44.041Z,87.27
2022-11-02T02:15:13.933Z,87.05
2022-11-02T02:17:48.212Z,86.60
2022-11-02T02:20:26.206Z,85.57
2022-11-02T02:23:25.264Z,85.83
2022-11-02T02:26:08.791Z,85.91
2022-11-02T02:28:42.645Z,86.25
2022-11-02T02:31:16.055Z,86.23
2022-11-02T02:33:47.841Z,85.95
2022-11-02T02:36:22.344Z,86.13
2022-11-02T02:38:57.630Z,86.07
2022-11-02T02:41:32.767Z,86.61
2022-11-02T02:44:04.705Z,87.19
2022-11-02T02:46:37.151Z,87.60
2022-11-02T02:49:06.377Z,88.34
2022-11-02T02:51:35.373Z,88.93
2022-11-02T02:54:05.868Z,89.24
2022-11-02T02:56:38.335Z,89.92
2022-11-02T02:59:12.521Z,90.27
2022-11-02T03:01:41.212Z,90.69
2022-11-02T03:04:11.458Z,91.27
2022-11-02T03:06:40.009Z,91.40
2022-11-02T03:09:14.840Z,91.96
2022-11-02T03:11:51.208Z,92.53
2022-11-02T03:14:28.821Z,93.10
2022-11-02T03:17:07.141Z,93.47
2022-11-02T03:19:42.498Z,93.40
2022-11-02T03:22:17.072Z,92.25
2022-11-02T03:24:50.363Z,92.96
2022-11-02T03:27:22.172Z,93.13
2022-11-02T03:29:56.169Z,93.13
2022-11-02T03:32:27.741Z,93.52
2022-11-02T03:34:57.418Z,93.74
2022-11-02T03:37:29.262Z,94.29
2022-11-02T03:40:02.793Z,94.46
2022-11-02T03:42:33.908Z,93.92
2022-11-02T03:45:08.580Z,94.26
2022-11-02T03:47:37.960Z,94.20
2022-11-02T03:50:10.896Z,94.53
2022-11-02T03:52:42.631Z,94.10
2022-11-02T03:55:13.756Z,94.20
2022-11-02T03:57:44.611Z,93.93
2022-11-02T04:00:18.523Z,94.16
2022-11-02T04:02:57.596Z,93.69
2022-11-02T04:05:30.490Z,93.30
2022-11-02T04:08:18.018Z,92.73
2022-11-02T04:11:04.243Z,90.92
2022-11-02T04:13:49.804Z,89.87
2022-11-02T04:16:23.639Z,90.18
2022-11-02T04:19:14.156Z,89.60
2022-11-02T04:22:04.110Z,90.21
2022-11-02T04:24:51.592Z,90.69
2022-11-02T04:27:21.350Z,91.20
2022-11-02T04:29:51.161Z,91.44
2022-11-02T04:32:35.487Z,91.28
2022-11-02T04:35:05.267Z,89.38
2022-11-02T04:37:57.080Z,87.55
2022-11-02T04:40:25.367Z,87.01
2022-11-02T04:42:54.459Z,86.70
2022-11-02T04:45:22.778Z,85.45
2022-11-02T04:47:52.522Z,84.63
2022-11-02T04:50:20.777Z,83.98
2022-11-02T04:52:56.599Z,83.79
2022-11-02T04:55:25.057Z,83.64
2022-11-02T04:57:54.481Z,83.11
2022-11-02T05:00:24.679Z,82.36
2022-11-02T05:02:55.607Z,81.23
2022-11-02T05:05:25.458Z,80.21
2022-11-02T05:07:56.906Z,79.63
2022-11-02T05:10:25.235Z,78.58
2022-11-02T05:12:58.507Z,77.86
2022-11-02T05:15:30.419Z,77.05
2022-11-02T05:18:02.093Z,77.19
2022-11-02T05:20:31.842Z,76.59
2022-11-02T05:23:00.020Z,76.29
2022-11-02T05:25:28.268Z,76.23
2022-11-02T05:27:57.822Z,76.09
2022-11-02T05:30:26.507Z,76.50
2022-11-02T05:32:57.597Z,76.14
2022-11-02T05:35:27.696Z,75.72
2022-11-02T05:37:56.511Z,75.51
2022-11-02T05:40:25.480Z,75.95
2022-11-02T05:43:00.210Z,75.98
2022-11-02T05:45:29.284Z,75.64
2022-11-02T05:47:57.551Z,75.00
2022-11-02T05:50:27.275Z,74.62
2022-11-02T05:52:55.667Z,74.57
2022-11-02T05:55:24.996Z,74.11
2022-11-02T05:57:54.004Z,73.86
2022-11-02T06:00:22.894Z,73.99
2022-11-02T06:02:57.185Z,73.21
2022-11-02T06:05:27.355Z,72.80
2022-11-02T06:07:59.394Z,71.70
2022-11-02T06:10:27.976Z,71.33
2022-11-02T06:12:57.526Z,70.98
2022-11-02T06:15:25.756Z,71.07
2022-11-02T06:17:53.916Z,70.79
2022-11-02T06:20:22.062Z,71.54
2022-11-02T06:22:51.798Z,71.38
2022-11-02T06:25:19.885Z,71.42
2022-11-02T06:27:56.179Z,71.23
2022-11-02T06:30:27.898Z,71.36
2022-11-02T06:32:56.100Z,70.46
2022-11-02T06:35:24.593Z,69.82
2022-11-02T06:37:54.060Z,69.75
2022-11-02T06:40:25.637Z,69.88
2022-11-02T06:43:15.387Z,70.11
2022-11-02T06:45:45.109Z,69.63
2022-11-02T06:48:13.374Z,69.94
2022-11-02T06:50:41.539Z,70.06
2022-11-02T06:53:11.259Z,70.11
2022-11-02T06:55:39.461Z,69.85
2022-11-02T06:58:07.618Z,70.03
2022-11-02T07:00:35.812Z,70.31
2022-11-02T07:03:06.114Z,70.32
2022-11-02T07:05:35.376Z,70.19
2022-11-02T07:08:03.986Z,70.10
2022-11-02T07:10:35.369Z,68.13
2022-11-02T07:13:04.060Z,67.39
2022-11-02T07:15:32.428Z,67.17
2022-11-02T07:18:00.592Z,68.14
2022-11-02T07:20:30.294Z,68.27
2022-11-02T07:23:00.301Z,67.77
2022-11-02T07:25:31.055Z,67.65
2022-11-02T07:28:01.171Z,66.28
2022-11-02T07:30:29.761Z,65.71
2022-11-02T07:32:58.282Z,64.16
2022-11-02T07:35:26.642Z,63.89
2022-11-02T07:37:58.468Z,63.07
2022-11-02T07:40:27.184Z,62.59
2022-11-02T07:42:55.426Z,61.55
2022-11-02T07:45:33.897Z,60.61
2022-11-02T07:48:02.044Z,60.15
2022-11-02T07:50:30.315Z,59.75
2022-11-02T07:53:00.269Z,59.08
2022-11-02T07:55:30.123Z,58.16
2022-11-02T07:58:00.068Z,57.65
2022-11-02T08:00:29.842Z,56.23
2022-11-02T08:03:01.118Z,55.77
2022-11-02T08:05:30.930Z,55.26
2022-11-02T08:07:59.345Z,54.51
2022-11-02T08:10:28.285Z,54.14
2022-11-02T08:12:57.442Z,53.33
2022-11-02T08:15:25.910Z,52.72
2022-11-02T08:18:06.906Z,52.22
2022-11-02T08:20:36.513Z,52.58
2022-11-02T08:23:05.409Z,52.09
2022-11-02T08:25:33.953Z,51.99
2022-11-02T08:28:02.966Z,51.96
2022-11-02T08:30:32.675Z,50.75
2022-11-02T08:33:05.573Z,49.42
2022-11-02T08:35:34.529Z,49.38
2022-11-02T08:38:03.338Z,49.52
2022-11-02T08:40:32.153Z,48.60
2022-11-02T08:43:04.761Z,48.24
2022-11-02T08:46:00.544Z,48.13
2022-11-02T08:48:26.017Z,47.43
2022-11-02T08:50:54.460Z,47.86
2022-11-02T08:53:22.557Z,46.80
2022-11-02T08:55:50.719Z,46.55
2022-11-02T08:58:19.364Z,46.21
2022-11-02T09:00:47.734Z,46.31
2022-11-02T09:03:19.541Z,47.18
2022-11-02T09:05:52.142Z,48.40
2022-11-02T09:08:21.477Z,48.92
2022-11-02T09:10:52.286Z,49.31
2022-11-02T09:13:25.340Z,49.84
2022-11-02T09:15:55.414Z,49.18
2022-11-02T09:18:24.228Z,49.60
2022-11-02T09:20:53.728Z,49.64
2022-11-02T09:23:23.052Z,49.91
2022-11-02T09:25:51.217Z,49.68
2022-11-02T09:28:19.403Z,49.79
2022-11-02T09:30:47.622Z,49.64
2022-11-02T09:33:16.169Z,49.45
2022-11-02T09:35:46.160Z,49.73
2022-11-02T09:38:16.107Z,49.79
2022-11-02T09:40:46.985Z,51.05
2022-11-02T09:43:21.754Z,51.47
2022-11-02T09:45:54.965Z,51.58
2022-11-02T09:48:28.947Z,50.77
2022-11-02T09:51:03.178Z,50.45
2022-11-02T09:53:39.884Z,50.85
2022-11-02T09:56:09.027Z,50.83
2022-11-02T09:58:39.126Z,50.76
2022-11-02T10:01:18.201Z,49.82
2022-11-02T10:03:59.930Z,48.95
2022-11-02T10:06:28.273Z,49.28
2022-11-02T10:09:02.396Z,49.15
2022-11-02T10:14:14.052Z,49.12
2022-11-02T10:16:47.205Z,50.04
2022-11-02T10:19:17.455Z,50.71
2022-11-02T10:21:48.249Z,50.76
2022-11-02T10:24:28.874Z,51.13
2022-11-02T10:26:58.273Z,55.39
2022-11-02T10:29:35.909Z,57.16
2022-11-02T10:32:04.363Z,58.56
2022-11-02T10:34:34.002Z,59.15
2022-11-02T10:37:23.702Z,59.51
2022-11-02T10:40:00.952Z,58.10
2022-11-02T10:42:40.017Z,57.40
2022-11-02T10:45:34.200Z,56.90
2022-11-02T10:48:07.137Z,57.10
2022-11-02T10:50:46.148Z,57.73
2022-11-02T10:53:40.203Z,55.90
2022-11-02T10:56:12.276Z,56.15
2022-11-02T10:58:43.495Z,55.96
2022-11-02T11:01:13.151Z,56.21
2022-11-02T11:03:59.089Z,56.94
2022-11-02T11:06:29.894Z,57.27
2022-11-02T11:09:03.768Z,56.34
2022-11-02T11:11:35.151Z,56.09
2022-11-02T11:16:55.975Z,57.07
2022-11-02T11:19:44.148Z,56.10
2022-11-02T11:22:27.781Z,56.89
2022-11-02T11:25:26.011Z,56.51
2022-11-02T11:27:58.932Z,57.29
2022-11-02T11:30:54.121Z,55.96
2022-11-02T11:33:18.753Z,55.85
2022-11-02T11:35:50.618Z,56.35
2022-11-02T11:38:20.878Z,56.37
2022-11-02T11:40:53.823Z,55.46
2022-11-02T11:43:25.950Z,55.70
2022-11-02T11:46:05.339Z,56.28
2022-11-02T11:48:40.769Z,56.54
2022-11-02T11:51:28.125Z,56.23
2022-11-02T11:54:19.315Z,55.85
2022-11-02T11:56:47.918Z,55.91
2022-11-02T11:59:29.504Z,55.77
2022-11-02T12:01:59.485Z,56.02
2022-11-02T12:04:29.467Z,55.72
2022-11-02T12:07:24.599Z,55.43
2022-11-02T12:10:02.968Z,56.17
2022-11-02T12:12:42.090Z,55.36
2022-11-02T12:15:27.506Z,56.35
2022-11-02T12:18:07.422Z,57.06
2022-11-02T12:20:55.662Z,56.40
2022-11-02T12:23:33.850Z,56.68
2022-11-02T12:26:13.444Z,56.53
2022-11-02T12:28:49.358Z,57.46
2022-11-02T12:31:25.613Z,56.61
2022-11-02T12:34:05.364Z,57.21
2022-11-02T12:37:11.221Z,58.08
2022-11-02T12:39:42.104Z,57.81
2022-11-02T12:42:24.005Z,57.66
2022-11-02T12:45:03.664Z,58.14
2022-11-02T12:47:52.778Z,58.93
2022-11-02T12:50:30.239Z,57.65
2022-11-02T12:53:09.576Z,58.59
2022-11-02T12:55:42.053Z,59.41
2022-11-02T12:58:17.235Z,60.30
2022-11-02T13:00:46.754Z,60.41
2022-11-02T13:03:26.350Z,59.54
2022-11-02T13:06:00.933Z,59.22
2022-11-02T13:08:35.172Z,59.67
2022-11-02T13:11:07.402Z,59.86
2022-11-02T13:13:39.736Z,60.66
2022-11-02T13:16:09.515Z,61.13
2022-11-02T13:18:43.186Z,61.23
2022-11-02T13:21:13.028Z,62.36
2022-11-02T13:23:45.012Z,62.26
2022-11-02T13:26:25.654Z,63.29
2022-11-02T13:28:56.022Z,62.97
2022-11-02T13:31:29.647Z,62.84
2022-11-02T13:34:03.694Z,63.44
2022-11-02T13:36:32.411Z,64.28
2022-11-02T13:39:04.573Z,64.44
2022-11-02T13:41:50.213Z,64.69
2022-11-02T13:44:45.670Z,65.06
2022-11-02T13:47:28.001Z,66.96
2022-11-02T13:49:58.287Z,66.07
2022-11-02T13:52:35.622Z,66.42
2022-11-02T13:55:06.175Z,66.65
2022-11-02T13:57:36.268Z,66.14
2022-11-02T14:00:08.025Z,66.79
2022-11-02T14:02:39.024Z,66.60
2022-11-02T14:05:09.635Z,66.92
2022-11-02T14:07:41.015Z,66.46
2022-11-02T14:10:14.880Z,66.52
2022-11-02T14:12:44.826Z,65.88
2022-11-02T14:15:49.738Z,65.31
2022-11-02T14:18:31.264Z,64.13
2022-11-02T14:21:39.576Z,64.61
2022-11-02T14:24:41.057Z,64.08
2022-11-02T14:27:30.987Z,63.86
2022-11-02T14:29:59.790Z,64.35
2022-11-02T14:32:40.993Z,64.72
2022-11-02T14:35:18.906Z,64.22
2022-11-02T14:38:02.072Z,64.33
2022-11-02T14:40:34.177Z,64.78
2022-11-02T14:43:14.514Z,64.93
2022-11-02T14:45:51.562Z,64.92
2022-11-02T14:48:19.818Z,65.30
2022-11-02T14:50:59.854Z,65.70
2022-11-02T14:53:30.966Z,66.39
2022-11-02T14:55:59.199Z,66.41
2022-11-02T14:58:31.729Z,66.51
2022-11-02T15:01:01.386Z,66.35
2022-11-02T15:03:34.394Z,65.82
2022-11-02T15:06:05.093Z,65.95
2022-11-02T15:08:37.226Z,66.11
2022-11-02T15:11:38.823Z,66.65
2022-11-02T15:14:34.652Z,65.79
2022-11-02T15:17:03.413Z,64.26
2022-11-02T15:19:37.730Z,65.14
2022-11-02T15:22:34.284Z,65.75
2022-11-02T15:25:07.459Z,65.58
2022-11-02T15:27:36.355Z,65.93
2022-11-02T15:30:06.923Z,65.89
2022-11-02T15:32:39.585Z,65.69
2022-11-02T15:35:19.773Z,65.57
2022-11-02T15:38:11.232Z,65.68
2022-11-02T15:40:48.540Z,65.68
2022-11-02T15:43:31.442Z,65.96
2022-11-02T15:46:08.306Z,65.63
2022-11-02T15:48:44.640Z,65.87
2022-11-02T15:51:19.621Z,66.00
2022-11-02T15:53:57.388Z,65.85
2022-11-02T15:56:38.588Z,66.10
2022-11-02T15:59:28.376Z,66.24
2022-11-02T16:02:21.667Z,66.28
2022-11-02T16:04:52.347Z,66.26
2022-11-02T16:07:21.094Z,65.96
2022-11-02T16:09:49.837Z,65.79
2022-11-02T16:12:21.289Z,65.90
2022-11-02T16:14:55.788Z,65.81
2022-11-02T16:17:25.729Z,66.47
2022-11-02T16:19:54.656Z,66.28
2022-11-02T16:22:26.090Z,66.15
2022-11-02T16:24:55.134Z,66.26
2022-11-02T16:27:25.196Z,67.07
2022-11-02T16:29:53.518Z,66.44
2022-11-02T16:32:21.731Z,65.87
2022-11-02T16:34:50.160Z,66.19
2022-11-02T16:37:19.520Z,66.42
2022-11-02T16:39:48.251Z,66.17
2022-11-02T16:42:18.586Z,66.32
2022-11-02T16:44:57.745Z,66.16
2022-11-02T16:47:40.961Z,65.70
2022-11-02T16:50:22.513Z,66.20
2022-11-02T16:52:55.853Z,66.03
2022-11-02T16:55:40.096Z,66.38
2022-11-02T16:58:13.420Z,66.38
2022-11-02T17:00:54.359Z,66.15
2022-11-02T17:03:25.898Z,66.22
2022-11-02T17:05:54.396Z,66.09
2022-11-02T17:08:31.356Z,66.01
2022-11-02T17:11:01.489Z,66.42
2022-11-02T17:13:32.064Z,65.70
2022-11-02T17:16:07.675Z,65.87
2022-11-02T17:18:36.624Z,65.84
2022-11-02T17:21:31.708Z,65.27
2022-11-02T17:24:00.707Z,65.33
2022-11-02T17:26:32.310Z,65.09
2022-11-02T17:29:01.423Z,65.26
2022-11-02T17:31:32.770Z,65.13
2022-11-02T17:34:02.974Z,65.18
2022-11-02T17:36:31.231Z,64.92
2022-11-02T17:39:05.941Z,65.29
2022-11-02T17:41:57.273Z,65.48
2022-11-02T17:44:25.523Z,65.57
2022-11-02T17:46:55.869Z,65.07
2022-11-02T17:49:24.023Z,65.37
2022-11-02T17:51:52.160Z,65.58
2022-11-02T17:54:20.287Z,65.44
2022-11-02T17:56:48.616Z,65.63
2022-11-02T17:59:16.945Z,65.71
2022-11-02T18:01:45.334Z,65.63
2022-11-02T18:04:14.957Z,65.79
2022-11-02T18:06:43.242Z,65.90
2022-11-02T18:09:19.647Z,65.71
2022-11-02T18:11:47.923Z,65.90
2022-11-02T18:14:17.031Z,66.22
2022-11-02T18:16:45.832Z,66.35
2022-11-02T18:19:16.997Z,66.85
2022-11-02T18:21:45.653Z,67.14
2022-11-02T18:24:13.840Z,67.49
2022-11-02T18:26:44.303Z,67.39
2022-11-02T18:29:15.340Z,67.77
2022-11-02T18:31:43.578Z,67.83
2022-11-02T18:34:11.863Z,67.67
2022-11-02T18:36:43.172Z,67.53
2022-11-02T18:39:11.741Z,67.41
2022-11-02T18:41:43.136Z,67.08
2022-11-02T18:44:15.162Z,67.00
2022-11-02T18:46:43.964Z,67.32
2022-11-02T18:49:12.105Z,67.08
2022-11-02T18:51:43.467Z,67.01
2022-11-02T18:54:12.083Z,66.89
2022-11-02T18:56:40.427Z,67.06
2022-11-02T18:59:08.665Z,67.17
2022-11-02T19:01:37.249Z,67.07
2022-11-02T19:04:05.967Z,66.93
2022-11-02T19:06:52.711Z,67.25
2022-11-02T19:09:24.360Z,67.09
2022-11-02T19:11:54.620Z,67.34
2022-11-02T19:14:24.062Z,67.91
2022-11-02T19:16:52.313Z,67.83
2022-11-02T19:19:20.662Z,67.61
2022-11-02T19:21:49.205Z,67.54
2022-11-02T19:24:17.358Z,67.80
2022-11-02T19:26:46.951Z,67.45
2022-11-02T19:29:15.312Z,67.66
2022-11-02T19:31:43.777Z,67.83
2022-11-02T19:34:12.265Z,67.73
2022-11-02T19:36:40.560Z,67.87
2022-11-02T19:39:09.682Z,68.09
2022-11-02T19:41:38.470Z,68.56
2022-11-02T19:44:08.428Z,68.34
2022-11-02T19:46:36.740Z,68.03
2022-11-02T19:49:05.187Z,68.47
2022-11-02T19:51:33.449Z,68.66
2022-11-02T19:54:02.649Z,68.96
2022-11-02T19:56:32.434Z,68.91
2022-11-02T19:59:01.000Z,68.90
2022-11-02T20:01:31.862Z,69.34
2022-11-02T20:04:00.622Z,69.25
2022-11-02T20:06:30.265Z,69.53
2022-11-02T20:08:59.518Z,69.36
2022-11-02T20:11:28.566Z,69.40
2022-11-02T20:13:57.829Z,69.17
2022-11-02T20:16:26.628Z,69.49
2022-11-02T20:18:56.681Z,69.46
2022-11-02T20:21:32.472Z,69.45
2022-11-02T20:24:04.649Z,69.90
2022-11-02T20:26:34.072Z,69.73
2022-11-02T20:29:05.918Z,69.75
2022-11-02T20:31:35.539Z,69.83
2022-11-02T20:34:06.864Z,69.80
2022-11-02T20:36:35.737Z,70.18
2022-11-02T20:39:05.612Z,70.14
2022-11-02T20:41:33.947Z,70.34
2022-11-02T20:44:03.425Z,70.70
2022-11-02T20:46:41.983Z,70.10
2022-11-02T20:49:21.889Z,70.64
2022-11-02T20:51:57.544Z,70.45
2022-11-02T20:54:29.403Z,70.54
2022-11-02T20:56:57.762Z,70.78
2022-11-02T20:59:26.508Z,70.69
2022-11-02T21:01:54.977Z,70.68
2022-11-02T21:04:24.699Z,70.49
2022-11-02T21:06:52.902Z,71.19
2022-11-02T21:09:21.372Z,71.24
2022-11-02T21:12:06.847Z,71.43
2022-11-02T21:14:35.044Z,71.22
2022-11-02T21:17:03.869Z,71.02
2022-11-02T21:19:33.398Z,71.33
2022-11-02T21:22:01.768Z,71.19
2022-11-02T21:24:30.423Z,71.26
2022-11-02T21:26:58.604Z,71.54
2022-11-02T21:29:26.897Z,71.77
2022-11-02T21:31:55.245Z,71.77
2022-11-02T21:34:23.477Z,72.02
2022-11-02T21:36:53.231Z,71.59
2022-11-02T21:39:21.456Z,71.95
2022-11-02T21:41:49.644Z,72.13
2022-11-02T21:44:17.810Z,72.20
2022-11-02T21:46:46.049Z,72.36
2022-11-02T21:49:14.287Z,72.51
2022-11-02T21:51:43.011Z,72.41
2022-11-02T21:54:12.636Z,72.19
2022-11-02T21:56:40.981Z,72.22
2022-11-02T21:59:09.858Z,72.18
2022-11-02T22:01:49.053Z,72.76
2022-11-02T22:04:19.853Z,72.49
2022-11-02T22:06:48.244Z,73.10
2022-11-02T22:09:17.884Z,73.09
2022-11-02T22:11:46.329Z,72.21
2022-11-02T22:14:14.053Z,72.48
2022-11-02T22:16:43.496Z,72.12
2022-11-02T22:19:13.272Z,72.35
2022-11-02T22:21:42.736Z,72.50
2022-11-02T22:24:13.617Z,72.65
2022-11-02T22:26:43.302Z,73.05
2022-11-02T22:29:11.783Z,73.00
2022-11-02T22:31:41.747Z,72.52
2022-11-02T22:34:11.567Z,72.70
2022-11-02T22:36:42.360Z,72.35
2022-11-02T22:39:12.579Z,72.71
2022-11-02T22:41:43.907Z,72.58
2022-11-02T22:44:13.517Z,72.50
2022-11-02T22:46:43.468Z,72.53
2022-11-02T22:49:13.319Z,72.66
2022-11-02T22:51:43.239Z,72.63
2022-11-02T22:54:14.846Z,72.54
2022-11-02T22:56:45.080Z,72.31
2022-11-02T22:59:13.752Z,72.51
2022-11-02T23:01:42.387Z,72.90
2022-11-02T23:04:13.311Z,72.52
2022-11-02T23:06:41.655Z,72.78
2022-11-02T23:09:11.807Z,72.75
2022-11-02T23:11:39.185Z,72.51
2022-11-02T23:14:09.952Z,72.64
2022-11-02T23:16:39.757Z,72.71
2022-11-02T23:19:30.476Z,72.86
2022-11-02T23:22:18.151Z,72.63
2022-11-02T23:25:05.006Z,73.24
2022-11-02T23:27:34.014Z,73.23
2022-11-02T23:30:20.794Z,73.01
2022-11-02T23:32:50.666Z,73.12
2022-11-02T23:35:36.189Z,73.39
2022-11-02T23:38:07.667Z,73.43
2022-11-02T23:40:35.931Z,73.57
2022-11-02T23:43:06.111Z,73.66
2022-11-02T23:45:36.122Z,73.71
2022-11-02T23:48:06.933Z,73.79
2022-11-02T23:50:51.799Z,74.01
2022-11-02T23:53:39.015Z,74.32
2022-11-02T23:56:29.472Z,74.11
2022-11-02T23:59:07.293Z,74.94
